createdAt,value
2022-11-08T00:00:41.421Z,97809.22
2022-11-08T00:03:08.938Z,97805.53
2022-11-08T00:05:54.969Z,97812.25
2022-11-08T00:08:41.165Z,97812.25
2022-11-08T00:11:27.390Z,97798.94
2022-11-08T00:13:58.577Z,97794.53
2022-11-08T00:16:27.350Z,97801.69
2022-11-08T00:18:54.731Z,97798.88
2022-11-08T00:21:22.200Z,97803.97
2022-11-08T00:23:49.770Z,97802.34
2022-11-08T00:26:17.213Z,97797.63
2022-11-08T00:28:44.763Z,97799.41
2022-11-08T00:31:12.192Z,97800.34
2022-11-08T00:33:39.711Z,97798.50
2022-11-08T00:36:07.332Z,97802.94
2022-11-08T00:38:34.913Z,97807.38
2022-11-08T00:41:02.348Z,97810.19
2022-11-08T00:43:29.846Z,97804.78
2022-11-08T00:45:57.302Z,97806.41
2022-11-08T00:48:24.770Z,97815.34
2022-11-08T00:50:52.322Z,97814.19
2022-11-08T00:53:19.727Z,97810.63
2022-11-08T00:55:47.222Z,97808.53
2022-11-08T00:58:14.809Z,97799.53
2022-11-08T01:00:42.603Z,97811.56
2022-11-08T01:03:19.201Z,97803.72
2022-11-08T01:05:48.091Z,97803.72
2022-11-08T01:08:16.040Z,97800.38
2022-11-08T01:10:46.003Z,97802.44
2022-11-08T01:13:13.772Z,97802.09
2022-11-08T01:15:43.674Z,97798.19
2022-11-08T01:18:14.036Z,97792.59
2022-11-08T01:20:43.340Z,97791.56
2022-11-08T01:23:11.539Z,97789.78
2022-11-08T01:25:40.758Z,97784.34
2022-11-08T01:28:08.770Z,97778.78
2022-11-08T01:30:38.010Z,97783.91
2022-11-08T01:33:06.428Z,97780.88
2022-11-08T01:35:35.705Z,97776.00
2022-11-08T01:38:04.846Z,97775.25
2022-11-08T01:40:33.121Z,97769.94
2022-11-08T01:43:00.633Z,97769.38
2022-11-08T01:46:05.473Z,97763.91
2022-11-08T01:48:32.994Z,97758.50
2022-11-08T01:51:00.730Z,97759.69
2022-11-08T01:53:29.171Z,97757.88
2022-11-08T01:55:57.190Z,97758.53
2022-11-08T01:58:30.572Z,97756.31
2022-11-08T02:01:01.826Z,97758.97
2022-11-08T02:03:33.069Z,97758.16
2022-11-08T02:06:01.888Z,97753.41
2022-11-08T02:08:37.322Z,97749.13
2022-11-08T02:11:06.846Z,97741.06
2022-11-08T02:13:36.089Z,97741.44
2022-11-08T02:16:07.011Z,97746.78
2022-11-08T02:18:34.612Z,97748.41
2022-11-08T02:21:19.717Z,97750.81
2022-11-08T02:23:47.901Z,97746.69
2022-11-08T02:26:17.271Z,97744.03
2022-11-08T02:28:47.601Z,97735.81
2022-11-08T02:31:17.791Z,97732.13
2022-11-08T02:33:46.956Z,97735.25
2022-11-08T02:36:23.011Z,97731.97
2022-11-08T02:38:54.568Z,97736.94
2022-11-08T02:41:22.097Z,97726.59
2022-11-08T02:43:49.541Z,97732.34
2022-11-08T02:46:17.112Z,97733.25
2022-11-08T02:48:44.544Z,97731.69
2022-11-08T02:51:11.980Z,97736.44
2022-11-08T02:53:39.460Z,97727.69
2022-11-08T02:56:07.121Z,97734.50
2022-11-08T02:58:34.593Z,97728.72
2022-11-08T03:01:02.118Z,97716.41
2022-11-08T03:03:29.727Z,97727.66
2022-11-08T03:05:57.477Z,97729.53
2022-11-08T03:08:24.977Z,97730.50
2022-11-08T03:10:52.372Z,97732.19
2022-11-08T03:13:19.922Z,97734.75
2022-11-08T03:15:47.591Z,97745.09
2022-11-08T03:18:15.305Z,97740.56
2022-11-08T03:20:43.152Z,97745.72
2022-11-08T03:23:10.787Z,97748.34
2022-11-08T03:25:38.319Z,97746.69
2022-11-08T03:28:07.205Z,97756.03
2022-11-08T03:30:36.513Z,97751.22
2022-11-08T03:33:04.811Z,97751.44
2022-11-08T03:35:35.202Z,97744.50
2022-11-08T03:38:02.931Z,97754.78
2022-11-08T03:40:30.380Z,97760.53
2022-11-08T03:42:57.940Z,97753.34
2022-11-08T03:45:25.608Z,97761.56
2022-11-08T03:47:53.562Z,97755.19
2022-11-08T03:50:21.103Z,97762.38
2022-11-08T03:52:54.108Z,97759.38
2022-11-08T03:55:24.266Z,97757.38
2022-11-08T03:57:51.879Z,97752.69
2022-11-08T04:00:27.789Z,97750.25
2022-11-08T04:03:01.176Z,97756.19
2022-11-08T04:05:29.231Z,97752.50
2022-11-08T04:07:56.656Z,97766.38
2022-11-08T04:10:24.282Z,97758.97
2022-11-08T04:13:10.118Z,97766.56
2022-11-08T04:15:37.866Z,97760.34
2022-11-08T04:18:23.722Z,97754.59
2022-11-08T04:21:09.750Z,97755.69
2022-11-08T04:23:37.641Z,97755.06
2022-11-08T04:26:07.815Z,97755.88
2022-11-08T04:28:37.042Z,97744.06
2022-11-08T04:31:13.602Z,97751.00
2022-11-08T04:33:41.842Z,97747.31
2022-11-08T04:36:12.159Z,97746.69
2022-11-08T04:38:39.656Z,97737.25
2022-11-08T04:41:12.428Z,97737.84
2022-11-08T04:43:40.416Z,97734.16
2022-11-08T04:46:13.009Z,97727.41
2022-11-08T04:48:41.079Z,97735.38
2022-11-08T04:51:15.876Z,97730.91
2022-11-08T04:53:43.544Z,97730.50
2022-11-08T04:56:14.340Z,97733.78
2022-11-08T04:58:47.133Z,97738.88
2022-11-08T05:01:17.138Z,97738.28
2022-11-08T05:03:49.501Z,97728.69
2022-11-08T05:06:24.195Z,97729.13
2022-11-08T05:08:52.301Z,97733.59
2022-11-08T05:11:22.135Z,97731.97
2022-11-08T05:13:51.060Z,97739.34
2022-11-08T05:16:21.711Z,97739.13
2022-11-08T05:18:49.826Z,97738.53
2022-11-08T05:21:38.491Z,97731.56
2022-11-08T05:24:07.500Z,97736.47
2022-11-08T05:26:37.021Z,97740.31
2022-11-08T05:29:05.370Z,97744.81
2022-11-08T05:31:33.048Z,97747.28
2022-11-08T05:34:01.000Z,97745.06
2022-11-08T05:36:29.025Z,97750.13
2022-11-08T05:38:56.892Z,97754.69
2022-11-08T05:41:26.108Z,97745.13
2022-11-08T05:43:56.040Z,97750.25
2022-11-08T05:46:24.320Z,97758.25
2022-11-08T05:48:52.591Z,97760.34
2022-11-08T05:51:20.851Z,97758.50
2022-11-08T05:53:48.918Z,97762.34
2022-11-08T05:56:17.808Z,97763.22
2022-11-08T05:58:45.720Z,97760.19
2022-11-08T06:01:15.801Z,97762.66
2022-11-08T06:03:43.761Z,97758.59
2022-11-08T06:06:24.481Z,97764.50
2022-11-08T06:08:52.726Z,97764.28
2022-11-08T06:11:24.056Z,97760.16
2022-11-08T06:13:52.882Z,97764.38
2022-11-08T06:16:22.222Z,97766.56
2022-11-08T06:18:49.857Z,97768.06
2022-11-08T06:21:19.871Z,97764.56
2022-11-08T06:23:48.406Z,97761.81
2022-11-08T06:26:15.755Z,97765.78
2022-11-08T06:28:43.223Z,97757.91
2022-11-08T06:31:10.743Z,97762.06
2022-11-08T06:33:38.211Z,97764.19
2022-11-08T06:36:07.109Z,97758.16
2022-11-08T06:38:34.625Z,97762.66
2022-11-08T06:41:02.758Z,97760.56
2022-11-08T06:43:30.693Z,97755.19
2022-11-08T06:46:04.380Z,97751.75
2022-11-08T06:48:35.711Z,97751.59
2022-11-08T06:51:04.563Z,97750.88
2022-11-08T06:53:32.695Z,97738.59
2022-11-08T06:56:01.103Z,97746.25
2022-11-08T06:58:29.122Z,97739.94
2022-11-08T07:00:56.724Z,97745.19
2022-11-08T07:03:24.212Z,97740.66
2022-11-08T07:05:51.755Z,97739.03
2022-11-08T07:08:23.735Z,97732.97
2022-11-08T07:10:51.898Z,97725.69
2022-11-08T07:13:19.982Z,97734.94
2022-11-08T07:15:48.189Z,97742.41
2022-11-08T07:18:17.515Z,97732.97
2022-11-08T07:20:45.182Z,97735.31
2022-11-08T07:23:13.238Z,97742.50
2022-11-08T07:25:40.818Z,97734.19
2022-11-08T07:28:12.993Z,97740.03
2022-11-08T07:30:40.481Z,97740.56
2022-11-08T07:33:07.978Z,97740.16
2022-11-08T07:35:35.401Z,97733.00
2022-11-08T07:38:02.924Z,97736.50
2022-11-08T07:40:30.663Z,97732.13
2022-11-08T07:43:14.766Z,97732.75
2022-11-08T07:45:43.903Z,97728.56
2022-11-08T07:48:13.802Z,97732.41
2022-11-08T07:50:42.765Z,97734.44
2022-11-08T07:53:10.901Z,97732.13
2022-11-08T07:55:40.543Z,97732.88
2022-11-08T07:58:10.713Z,97732.38
2022-11-08T08:00:40.534Z,97732.13
2022-11-08T08:03:10.714Z,97732.41
2022-11-08T08:05:40.977Z,97726.38
2022-11-08T08:08:09.293Z,97732.00
2022-11-08T08:10:37.203Z,97734.06
2022-11-08T08:13:05.146Z,97737.84
2022-11-08T08:15:33.030Z,97734.72
2022-11-08T08:18:02.614Z,97722.53
2022-11-08T08:20:32.308Z,97724.72
2022-11-08T08:23:00.311Z,97721.47
2022-11-08T08:25:31.057Z,97707.50
2022-11-08T08:28:02.951Z,97707.97
2022-11-08T08:30:31.568Z,97710.69
2022-11-08T08:33:27.534Z,97710.66
2022-11-08T08:35:55.502Z,97708.28
2022-11-08T08:38:23.028Z,97696.56
2022-11-08T08:40:51.359Z,97704.88
2022-11-08T08:43:20.063Z,97702.56
2022-11-08T08:45:48.825Z,97716.06
2022-11-08T08:48:16.781Z,97712.13
2022-11-08T08:50:44.310Z,97716.03
2022-11-08T08:53:11.800Z,97707.75
2022-11-08T08:55:41.821Z,97714.84
2022-11-08T08:58:10.990Z,97693.22
2022-11-08T09:03:25.893Z,97696.72
2022-11-08T09:05:53.312Z,97688.00
2022-11-08T09:08:20.777Z,97698.53
2022-11-08T09:10:54.120Z,97698.47
2022-11-08T09:13:22.401Z,97689.72
2022-11-08T09:15:50.732Z,97688.09
2022-11-08T09:18:18.760Z,97697.19
2022-11-08T09:20:46.861Z,97691.56
2022-11-08T09:23:17.759Z,97695.78
2022-11-08T09:25:45.642Z,97694.13
2022-11-08T09:28:13.072Z,97693.63
2022-11-08T09:30:40.533Z,97693.94
2022-11-08T09:33:08.077Z,97691.03
2022-11-08T09:35:35.549Z,97694.22
2022-11-08T09:38:03.106Z,97697.94
2022-11-08T09:40:39.327Z,97696.66
2022-11-08T09:43:16.282Z,97690.78
2022-11-08T09:45:46.634Z,97692.28
2022-11-08T09:48:35.462Z,97694.03
2022-11-08T09:51:16.545Z,97686.75
2022-11-08T09:53:58.220Z,97686.56
2022-11-08T09:56:37.323Z,97682.59
2022-11-08T09:59:11.588Z,97679.94
2022-11-08T10:01:40.210Z,97673.88
2022-11-08T10:04:19.440Z,97675.94
2022-11-08T10:07:01.041Z,97687.72
2022-11-08T10:09:43.766Z,97672.22
2022-11-08T10:12:30.377Z,97673.63
2022-11-08T10:15:11.191Z,97672.81
2022-11-08T10:18:06.551Z,97676.22
2022-11-08T10:21:02.832Z,97674.91
2022-11-08T10:23:42.292Z,97674.34
2022-11-08T10:26:16.511Z,97672.44
2022-11-08T10:29:07.771Z,97680.06
2022-11-08T10:31:38.401Z,97682.59
2022-11-08T10:34:15.140Z,97669.91
2022-11-08T10:36:47.233Z,97685.84
2022-11-08T10:39:26.280Z,97674.81
2022-11-08T10:42:06.280Z,97676.84
2022-11-08T10:44:35.031Z,97678.94
2022-11-08T10:47:05.989Z,97678.19
2022-11-08T10:49:42.990Z,97666.84
2022-11-08T10:52:18.511Z,97662.06
2022-11-08T10:54:52.792Z,97657.56
2022-11-08T10:57:25.942Z,97649.00
2022-11-08T10:59:54.954Z,97653.19
2022-11-08T11:02:22.360Z,97645.47
2022-11-08T11:04:50.761Z,97655.91
2022-11-08T11:07:36.222Z,97652.84
2022-11-08T11:10:25.529Z,97657.56
2022-11-08T11:13:03.213Z,97660.31
2022-11-08T11:15:53.190Z,97657.56
2022-11-08T11:18:29.499Z,97648.72
2022-11-08T11:21:04.534Z,97628.97
2022-11-08T11:23:45.360Z,97629.34
2022-11-08T11:26:34.448Z,97633.00
2022-11-08T11:29:04.939Z,97641.78
2022-11-08T11:31:34.530Z,97638.66
2022-11-08T11:34:17.482Z,97633.91
2022-11-08T11:36:57.331Z,97633.94
2022-11-08T11:39:35.647Z,97632.06
2022-11-08T11:45:15.211Z,97624.50
2022-11-08T11:48:03.649Z,97632.59
2022-11-08T11:50:33.842Z,97633.91
2022-11-08T11:53:06.046Z,97631.16
2022-11-08T11:56:15.169Z,97642.38
2022-11-08T11:58:45.380Z,97634.88
2022-11-08T12:05:28.776Z,97629.47
2022-11-08T12:08:17.588Z,97619.31
2022-11-08T12:10:48.012Z,97620.28
2022-11-08T12:13:18.713Z,97612.53
2022-11-08T12:15:58.064Z,97614.63
2022-11-08T12:19:19.013Z,97610.78
2022-11-08T12:22:21.690Z,97601.16
2022-11-08T12:25:07.198Z,97597.63
2022-11-08T12:27:52.757Z,97590.28
2022-11-08T12:30:26.302Z,97583.78
2022-11-08T12:33:08.844Z,97580.41
2022-11-08T12:35:48.575Z,97577.84
2022-11-08T12:38:33.605Z,97587.78
2022-11-08T12:41:23.551Z,97579.16
2022-11-08T12:44:04.905Z,97573.44
2022-11-08T12:46:55.213Z,97577.28
2022-11-08T12:49:48.134Z,97567.09
2022-11-08T12:52:40.282Z,97568.88
2022-11-08T12:55:19.952Z,97565.91
2022-11-08T12:57:47.981Z,97574.78
2022-11-08T13:00:18.715Z,97564.13
2022-11-08T13:02:56.062Z,97557.66
2022-11-08T13:05:39.444Z,97564.16
2022-11-08T13:08:20.425Z,97566.91
2022-11-08T13:11:04.969Z,97575.44
2022-11-08T13:13:53.202Z,97578.19
2022-11-08T13:16:26.475Z,97580.16
2022-11-08T13:18:59.345Z,97586.41
2022-11-08T13:21:34.456Z,97582.13
2022-11-08T13:24:06.635Z,97580.16
2022-11-08T13:26:42.146Z,97572.06
2022-11-08T13:29:27.369Z,97573.84
2022-11-08T13:32:01.139Z,97571.59
2022-11-08T13:34:34.324Z,97573.09
2022-11-08T13:37:07.735Z,97585.13
2022-11-08T13:39:54.245Z,97574.69
2022-11-08T13:42:21.758Z,97572.31
2022-11-08T13:44:55.175Z,97567.97
2022-11-08T13:47:34.708Z,97560.44
2022-11-08T13:50:33.962Z,97557.75
2022-11-08T13:53:02.762Z,97556.81
2022-11-08T13:55:42.251Z,97546.56
2022-11-08T13:58:31.541Z,97541.66
2022-11-08T14:00:59.983Z,97526.16
2022-11-08T14:03:33.511Z,97535.94
2022-11-08T14:06:06.696Z,97529.69
2022-11-08T14:09:11.210Z,97526.41
2022-11-08T14:12:01.007Z,97524.47
2022-11-08T14:14:58.603Z,97523.84
2022-11-08T14:17:31.212Z,97528.13
2022-11-08T14:20:17.323Z,97526.03
2022-11-08T14:22:49.976Z,97525.41
2022-11-08T14:25:34.235Z,97512.19
2022-11-08T14:28:01.973Z,97516.72
2022-11-08T14:30:29.558Z,97520.94
2022-11-08T14:33:18.196Z,97518.97
2022-11-08T14:36:01.557Z,97511.72
2022-11-08T14:38:32.488Z,97508.53
2022-11-08T14:41:02.760Z,97513.88
2022-11-08T14:43:31.388Z,97507.34
2022-11-08T14:46:00.199Z,97505.22
2022-11-08T14:48:30.421Z,97522.88
2022-11-08T14:50:59.376Z,97514.59
2022-11-08T14:53:47.380Z,97521.72
2022-11-08T14:56:22.087Z,97526.28
2022-11-08T14:58:51.798Z,97525.97
2022-11-08T15:01:24.290Z,97536.56
2022-11-08T15:04:02.698Z,97541.50
2022-11-08T15:06:39.482Z,97526.94
2022-11-08T15:09:08.589Z,97523.38
2022-11-08T15:11:41.076Z,97511.63
2022-11-08T15:14:16.897Z,97526.44
2022-11-08T15:17:02.605Z,97519.25
2022-11-08T15:19:45.109Z,97524.81
2022-11-08T15:22:26.000Z,97523.50
2022-11-08T15:25:09.053Z,97522.75
2022-11-08T15:27:36.568Z,97513.38
2022-11-08T15:30:09.338Z,97518.72
2022-11-08T15:32:39.099Z,97509.09
2022-11-08T15:35:19.115Z,97512.56
2022-11-08T15:37:48.619Z,97504.31
2022-11-08T15:40:30.707Z,97507.34
2022-11-08T15:42:59.934Z,97499.56
2022-11-08T15:45:32.373Z,97508.28
2022-11-08T15:48:09.060Z,97507.28
2022-11-08T15:50:36.898Z,97505.84
2022-11-08T15:53:05.338Z,97519.66
2022-11-08T15:55:47.039Z,97518.47
2022-11-08T15:58:27.033Z,97527.66
2022-11-08T16:00:55.447Z,97525.69
2022-11-08T16:03:23.499Z,97525.34
2022-11-08T16:05:51.049Z,97534.97
2022-11-08T16:08:20.483Z,97529.56
2022-11-08T16:10:53.978Z,97519.88
2022-11-08T16:13:29.351Z,97506.53
2022-11-08T16:15:58.801Z,97504.78
2022-11-08T16:18:26.499Z,97511.03
2022-11-08T16:20:54.119Z,97501.00
2022-11-08T16:23:21.681Z,97494.84
2022-11-08T16:25:57.802Z,97500.19
2022-11-08T16:28:34.458Z,97493.56
2022-11-08T16:31:03.968Z,97506.81
2022-11-08T16:33:33.055Z,97504.16
2022-11-08T16:36:12.731Z,97502.38
2022-11-08T16:38:40.292Z,97503.34
2022-11-08T16:41:07.749Z,97503.00
2022-11-08T16:43:35.286Z,97504.03
2022-11-08T16:46:07.165Z,97499.75
2022-11-08T16:48:37.716Z,97501.72
2022-11-08T16:51:08.040Z,97490.69
2022-11-08T16:53:37.682Z,97493.38
2022-11-08T16:56:05.292Z,97485.78
2022-11-08T16:58:32.791Z,97480.47
2022-11-08T17:01:00.549Z,97484.41
2022-11-08T17:03:29.837Z,97484.19
2022-11-08T17:05:58.000Z,97481.09
2022-11-08T17:08:26.009Z,97485.03
2022-11-08T17:10:54.671Z,97483.06
2022-11-08T17:13:22.792Z,97477.09
2022-11-08T17:15:51.063Z,97470.78
2022-11-08T17:18:21.359Z,97477.81
2022-11-08T17:20:49.506Z,97478.38
2022-11-08T17:23:17.815Z,97477.00
2022-11-08T17:25:45.411Z,97483.22
2022-11-08T17:28:13.400Z,97480.09
2022-11-08T17:30:46.950Z,97475.78
2022-11-08T17:33:14.472Z,97476.59
2022-11-08T17:35:44.249Z,97469.75
2022-11-08T17:38:13.609Z,97468.09
2022-11-08T17:40:42.572Z,97475.00
2022-11-08T17:43:10.341Z,97465.91
2022-11-08T17:45:37.769Z,97479.03
2022-11-08T17:48:05.375Z,97475.63
2022-11-08T17:50:32.750Z,97475.50
2022-11-08T17:53:00.350Z,97483.63
2022-11-08T17:55:27.779Z,97489.06
2022-11-08T17:57:55.290Z,97477.59
2022-11-08T18:00:22.752Z,97483.00
2022-11-08T18:02:50.325Z,97486.00
2022-11-08T18:05:17.722Z,97478.22
2022-11-08T18:07:45.306Z,97481.47
2022-11-08T18:10:12.811Z,97479.38
2022-11-08T18:12:40.355Z,97474.66
2022-11-08T18:15:08.839Z,97475.81
2022-11-08T18:17:36.259Z,97481.56
2022-11-08T18:20:03.865Z,97479.25
2022-11-08T18:22:31.400Z,97474.88
2022-11-08T18:24:58.867Z,97478.63
2022-11-08T18:27:26.648Z,97484.28
2022-11-08T18:29:54.171Z,97481.63
2022-11-08T18:32:21.730Z,97479.44
2022-11-08T18:34:49.200Z,97475.97
2022-11-08T18:37:16.635Z,97478.88
2022-11-08T18:39:44.080Z,97476.59
2022-11-08T18:42:11.590Z,97473.69
2022-11-08T18:44:39.098Z,97475.59
2022-11-08T18:47:06.535Z,97477.06
2022-11-08T18:49:34.006Z,97474.13
2022-11-08T18:52:01.961Z,97472.13
2022-11-08T18:54:29.448Z,97473.50
2022-11-08T18:56:56.896Z,97467.28
2022-11-08T18:59:24.351Z,97476.66
2022-11-08T19:01:51.891Z,97472.13
2022-11-08T19:04:19.289Z,97470.97
2022-11-08T19:06:53.132Z,97471.38
2022-11-08T19:09:22.368Z,97465.22
2022-11-08T19:11:49.796Z,97462.06
2022-11-08T19:14:17.251Z,97474.63
2022-11-08T19:16:44.675Z,97466.84
2022-11-08T19:19:12.319Z,97466.03
2022-11-08T19:21:42.778Z,97474.78
2022-11-08T19:24:11.158Z,97470.44
2022-11-08T19:26:38.820Z,97464.78
2022-11-08T19:29:06.849Z,97465.81
2022-11-08T19:31:39.072Z,97476.44
2022-11-08T19:34:06.550Z,97470.75
2022-11-08T19:36:34.307Z,97482.81
2022-11-08T19:39:01.749Z,97472.88
2022-11-08T19:41:29.462Z,97476.94
2022-11-08T19:43:57.371Z,97484.13
2022-11-08T19:46:29.196Z,97483.78
2022-11-08T19:48:59.070Z,97482.00
2022-11-08T19:51:29.556Z,97498.03
2022-11-08T19:54:05.249Z,97491.56
2022-11-08T19:57:02.729Z,97497.22
2022-11-08T19:59:21.110Z,97498.31
2022-11-08T20:01:48.946Z,97495.38
2022-11-08T20:04:18.586Z,97493.75
2022-11-08T20:06:46.543Z,97503.97
2022-11-08T20:09:14.250Z,97500.78
2022-11-08T20:11:42.636Z,97492.28
2022-11-08T20:14:12.592Z,97494.88
2022-11-08T20:16:42.972Z,97494.88
2022-11-08T20:19:16.656Z,97495.69
2022-11-08T20:21:46.380Z,97498.63
2022-11-08T20:24:14.760Z,97504.91
2022-11-08T20:26:42.854Z,97502.72
2022-11-08T20:29:10.651Z,97496.16
2022-11-08T20:31:38.716Z,97501.34
2022-11-08T20:34:10.287Z,97510.16
2022-11-08T20:36:38.148Z,97504.00
2022-11-08T20:39:07.624Z,97514.91
2022-11-08T20:41:37.474Z,97512.50
2022-11-08T20:44:06.627Z,97513.97
2022-11-08T20:46:35.543Z,97512.19
2022-11-08T20:49:04.348Z,97507.66
2022-11-08T20:51:32.479Z,97512.63
2022-11-08T20:54:01.209Z,97508.81
2022-11-08T20:56:29.418Z,97512.88
2022-11-08T20:58:57.238Z,97513.41
2022-11-08T21:01:28.263Z,97519.56
2022-11-08T21:03:56.496Z,97517.38
2022-11-08T21:06:25.923Z,97524.84
2022-11-08T21:08:59.866Z,97515.53
2022-11-08T21:11:30.932Z,97524.56
2022-11-08T21:13:58.522Z,97519.41
2022-11-08T21:16:30.431Z,97513.66
2022-11-08T21:18:59.740Z,97514.94
2022-11-08T21:21:27.485Z,97520.84
2022-11-08T21:23:55.158Z,97524.81
2022-11-08T21:26:24.277Z,97527.94
2022-11-08T21:28:52.453Z,97524.69
2022-11-08T21:31:20.242Z,97531.00
2022-11-08T21:33:47.829Z,97525.44
2022-11-08T21:36:17.468Z,97519.53
2022-11-08T21:38:45.511Z,97521.38
2022-11-08T21:41:13.528Z,97510.22
2022-11-08T21:43:43.459Z,97519.28
2022-11-08T21:46:26.949Z,97503.03
2022-11-08T21:48:59.597Z,97509.75
2022-11-08T21:51:29.508Z,97514.84
2022-11-08T21:53:58.620Z,97509.16
2022-11-08T21:56:33.567Z,97504.91
2022-11-08T21:59:02.259Z,97505.38
2022-11-08T22:01:30.779Z,97502.13
2022-11-08T22:03:59.949Z,97502.38
2022-11-08T22:06:28.442Z,97514.28
2022-11-08T22:08:56.078Z,97502.22
2022-11-08T22:11:23.620Z,97502.13
2022-11-08T22:13:51.550Z,97499.41
2022-11-08T22:16:18.968Z,97496.41
2022-11-08T22:21:43.282Z,97491.41
2022-11-08T22:24:13.816Z,97498.91
2022-11-08T22:26:41.782Z,97494.31
2022-11-08T22:29:09.908Z,97489.19
2022-11-08T22:31:38.199Z,97502.00
2022-11-08T22:34:08.389Z,97494.97
2022-11-08T22:36:41.444Z,97492.84
2022-11-08T22:39:16.867Z,97493.31
2022-11-08T22:41:46.089Z,97493.63
2022-11-08T22:44:14.110Z,97486.22
2022-11-08T22:46:42.721Z,97497.16
2022-11-08T22:49:11.308Z,97486.94
2022-11-08T22:51:40.134Z,97495.75
2022-11-08T22:54:08.505Z,97490.00
2022-11-08T22:56:36.823Z,97497.91
2022-11-08T22:59:05.054Z,97489.81
2022-11-08T23:01:32.919Z,97492.06
2022-11-08T23:04:00.610Z,97488.50
2022-11-08T23:06:28.306Z,97486.72
2022-11-08T23:08:55.889Z,97490.53
2022-11-08T23:11:41.910Z,97480.13
2022-11-08T23:14:33.776Z,97490.38
2022-11-08T23:17:05.899Z,97492.56
2022-11-08T23:19:51.851Z,97488.88
2022-11-08T23:22:38.084Z,97496.63
2022-11-08T23:25:06.090Z,97491.13
2022-11-08T23:27:52.160Z,97480.47
2022-11-08T23:30:38.250Z,97485.47
2022-11-08T23:33:09.240Z,97482.00
2022-11-08T23:35:36.874Z,97486.28
2022-11-08T23:38:04.325Z,97474.00
2022-11-08T23:40:50.224Z,97475.28
2022-11-08T23:43:37.814Z,97472.03
2022-11-08T23:46:08.521Z,97471.72
2022-11-08T23:48:37.409Z,97470.09
2022-11-08T23:51:06.333Z,97462.31
2022-11-08T23:53:36.858Z,97468.97
2022-11-08T23:56:05.476Z,97465.81
2022-11-08T23:58:33.484Z,97465.81
